Terminal Aerodrome Forecast
Issued by NWS

Home | Current Version | Previous Version | Text Only | Print | Product List | Glossary On
Versions: 1 2 3 4 5 6 7 8 9 10 11 12 13 14 15 16 17 18 19 20 21 22
000
FTAK31 PANC 231729
TAFAAQ
TAF
PAAQ 231729Z 2318/2418 VRB04KT P6SM SCT030 OVC090
     FM240800 14006KT P6SM SCT030 BKN120
     FM241200 14008KT P6SM VCSH BKN045
     FM241700 14008KT 3SM -SN OVC020=

USA.gov is the U.S. government's official web portal to all federal, state and local government web resources and services.